createdAt,value
2023-05-07T00:01:52.885Z,98067.38
2023-05-07T00:03:56.303Z,98061.56
2023-05-07T00:05:59.753Z,98064.47
2023-05-07T00:08:02.894Z,98058.38
2023-05-07T00:10:07.568Z,98058.91
2023-05-07T00:12:12.293Z,98057.25
2023-05-07T00:14:15.483Z,98059.19
2023-05-07T00:16:18.704Z,98053.38
2023-05-07T00:18:23.664Z,98055.28
2023-05-07T00:20:27.494Z,98052.81
2023-05-07T00:22:31.254Z,98051.28
2023-05-07T00:24:34.407Z,98047.81
2023-05-07T00:26:37.637Z,98050.03
2023-05-07T00:28:42.253Z,98051.13
2023-05-07T00:30:45.534Z,98051.97
2023-05-07T00:32:50.103Z,98047.78
2023-05-07T00:34:53.438Z,98048.88
2023-05-07T00:36:56.455Z,98042.25
2023-05-07T00:39:03.151Z,98042.53
2023-05-07T00:41:06.593Z,98036.44
2023-05-07T00:43:09.930Z,98033.06
2023-05-07T00:45:14.453Z,98035.00
2023-05-07T00:47:17.771Z,98031.81
2023-05-07T00:49:20.944Z,98031.97
2023-05-07T00:51:24.184Z,98032.22
2023-05-07T00:53:27.698Z,98023.34
2023-05-07T00:55:30.948Z,98030.97
2023-05-07T00:57:35.643Z,98030.94
2023-05-07T00:59:39.058Z,98022.81
2023-05-07T01:01:43.846Z,98022.56
2023-05-07T01:03:47.696Z,98024.22
2023-05-07T01:05:52.215Z,98018.06
2023-05-07T01:07:57.062Z,98020.53
2023-05-07T01:10:00.798Z,98021.38
2023-05-07T01:12:05.845Z,98020.91
2023-05-07T01:14:09.661Z,98019.09
2023-05-07T01:16:13.220Z,98020.31
2023-05-07T01:18:18.593Z,98028.19
2023-05-07T01:20:22.641Z,98023.91
2023-05-07T01:22:33.208Z,98021.84
2023-05-07T01:24:38.821Z,98020.72
2023-05-07T01:26:44.823Z,98017.25
2023-05-07T01:28:51.327Z,98018.63
2023-05-07T01:30:57.649Z,98011.94
2023-05-07T01:33:04.967Z,98020.94
2023-05-07T01:35:13.653Z,98018.03
2023-05-07T01:37:17.473Z,98014.94
2023-05-07T01:39:22.526Z,98015.78
2023-05-07T01:41:26.685Z,98015.06
2023-05-07T01:43:30.773Z,98007.19
2023-05-07T01:45:34.814Z,98014.38
2023-05-07T01:47:38.847Z,98012.97
2023-05-07T01:49:44.273Z,98008.00
2023-05-07T01:51:48.480Z,98006.91
2023-05-07T01:53:53.136Z,98012.16
2023-05-07T01:55:58.903Z,98013.25
2023-05-07T01:58:02.697Z,98017.25
2023-05-07T02:00:07.805Z,98016.38
2023-05-07T02:02:18.947Z,98017.38
2023-05-07T02:04:24.322Z,98018.19
2023-05-07T02:06:28.567Z,98012.13
2023-05-07T02:08:37.164Z,98005.19
2023-05-07T02:10:41.405Z,98007.13
2023-05-07T02:12:46.478Z,98009.75
2023-05-07T02:14:50.316Z,98008.78
2023-05-07T02:16:53.961Z,98008.63
2023-05-07T02:18:57.732Z,98011.41
2023-05-07T02:21:01.353Z,98014.16
2023-05-07T02:23:05.085Z,98015.00
2023-05-07T02:25:09.393Z,98018.59
2023-05-07T02:27:13.081Z,98020.50
2023-05-07T02:29:19.064Z,98014.53
2023-05-07T02:31:22.784Z,98013.72
2023-05-07T02:33:26.685Z,98012.47
2023-05-07T02:35:30.826Z,98011.31
2023-05-07T02:37:34.400Z,98024.56
2023-05-07T02:39:38.436Z,98015.88
2023-05-07T02:41:42.191Z,98016.00
2023-05-07T02:43:46.161Z,98021.38
2023-05-07T02:45:51.487Z,98023.28
2023-05-07T02:47:56.201Z,98029.63
2023-05-07T02:49:59.815Z,98029.88
2023-05-07T02:52:04.783Z,98031.91
2023-05-07T02:54:08.460Z,98021.69
2023-05-07T02:56:12.243Z,98019.31
2023-05-07T02:58:16.510Z,98014.31
2023-05-07T03:00:21.253Z,98014.44
2023-05-07T03:02:46.160Z,98019.81
2023-05-07T03:04:49.884Z,98010.44
2023-05-07T03:06:52.935Z,98021.75
2023-05-07T03:08:55.968Z,98023.53
2023-05-07T03:10:59.033Z,98018.41
2023-05-07T03:13:03.696Z,98018.41
2023-05-07T03:15:07.701Z,98004.59
2023-05-07T03:17:11.031Z,98006.50
2023-05-07T03:19:15.421Z,98003.88
2023-05-07T03:21:18.621Z,97999.84
2023-05-07T03:23:24.087Z,97999.13
2023-05-07T03:25:27.942Z,98004.50
2023-05-07T03:27:30.996Z,98006.31
2023-05-07T03:29:34.143Z,98003.69
2023-05-07T03:31:37.264Z,98002.84
2023-05-07T03:33:52.569Z,98001.31
2023-05-07T03:35:57.045Z,98004.88
2023-05-07T03:38:03.340Z,98000.88
2023-05-07T03:40:11.766Z,98004.56
2023-05-07T03:42:23.064Z,98005.50
2023-05-07T03:44:28.336Z,98001.25
2023-05-07T03:46:31.593Z,97996.00
2023-05-07T03:48:34.742Z,98005.63
2023-05-07T03:50:38.990Z,97994.47
2023-05-07T03:52:44.569Z,98002.44
2023-05-07T03:54:48.133Z,98007.81
2023-05-07T03:56:52.355Z,97998.41
2023-05-07T03:58:55.576Z,98006.50
2023-05-07T04:00:58.782Z,97996.28
2023-05-07T04:03:05.572Z,98001.06
2023-05-07T04:05:09.525Z,98003.69
2023-05-07T04:07:16.091Z,98006.19
2023-05-07T04:09:23.022Z,98010.38
2023-05-07T04:11:26.147Z,98017.13
2023-05-07T04:13:29.576Z,98016.06
2023-05-07T04:15:32.806Z,98022.84
2023-05-07T04:17:36.082Z,98021.75
2023-05-07T04:19:39.563Z,98023.41
2023-05-07T04:21:42.870Z,98032.22
2023-05-07T04:23:46.293Z,98026.16
2023-05-07T04:25:52.401Z,98025.91
2023-05-07T04:28:00.312Z,98029.22
2023-05-07T04:30:07.720Z,98040.31
2023-05-07T04:32:14.901Z,98045.44
2023-05-07T04:34:18.909Z,98045.19
2023-05-07T04:36:22.460Z,98062.31
2023-05-07T04:38:35.144Z,98056.25
2023-05-07T04:40:39.974Z,98052.06
2023-05-07T04:42:46.638Z,98047.06
2023-05-07T04:44:50.118Z,98047.44
2023-05-07T04:46:53.514Z,98042.06
2023-05-07T04:48:56.768Z,98048.69
2023-05-07T04:51:00.374Z,98050.13
2023-05-07T04:53:04.039Z,98047.16
2023-05-07T04:55:08.096Z,98051.03
2023-05-07T04:57:14.619Z,98046.53
2023-05-07T04:59:19.722Z,98053.53
2023-05-07T05:01:23.490Z,98055.78
2023-05-07T05:03:26.825Z,98052.66
2023-05-07T05:05:30.194Z,98061.69
2023-05-07T05:07:33.647Z,98065.47
2023-05-07T05:09:37.128Z,98070.75
2023-05-07T05:11:41.110Z,98078.94
2023-05-07T05:13:44.238Z,98079.84
2023-05-07T05:15:54.591Z,98077.41
2023-05-07T05:17:57.877Z,98082.00
2023-05-07T05:20:04.832Z,98081.34
2023-05-07T05:22:08.124Z,98077.59
2023-05-07T05:24:11.287Z,98083.44
2023-05-07T05:26:15.491Z,98094.13
2023-05-07T05:28:18.589Z,98091.78
2023-05-07T05:30:23.246Z,98082.97
2023-05-07T05:32:28.060Z,98077.44
2023-05-07T05:34:34.141Z,98081.47
2023-05-07T05:36:37.565Z,98084.25
2023-05-07T05:38:40.977Z,98095.06
2023-05-07T05:40:45.168Z,98090.63
2023-05-07T05:42:48.413Z,98084.88
2023-05-07T05:44:52.353Z,98091.88
2023-05-07T05:46:58.611Z,98103.28
2023-05-07T05:49:03.190Z,98105.53
2023-05-07T05:51:07.879Z,98110.63
2023-05-07T05:53:11.280Z,98113.34
2023-05-07T05:55:15.276Z,98094.88
2023-05-07T05:57:18.569Z,98107.50
2023-05-07T05:59:22.447Z,98110.53
2023-05-07T06:01:26.044Z,98110.75
2023-05-07T06:03:31.090Z,98123.84
2023-05-07T06:05:38.617Z,98123.75
2023-05-07T06:07:42.297Z,98129.72
2023-05-07T06:09:45.766Z,98124.47
2023-05-07T06:11:49.338Z,98124.94
2023-05-07T06:13:52.419Z,98114.84
2023-05-07T06:15:55.771Z,98108.47
2023-05-07T06:17:58.899Z,98103.25
2023-05-07T06:20:02.106Z,98105.19
2023-05-07T06:22:06.625Z,98116.84
2023-05-07T06:24:11.394Z,98132.34
2023-05-07T06:26:16.040Z,98136.50
2023-05-07T06:28:23.116Z,98128.25
2023-05-07T06:30:27.748Z,98136.75
2023-05-07T06:32:31.982Z,98132.28
2023-05-07T06:34:35.230Z,98139.59
2023-05-07T06:36:38.492Z,98143.69
2023-05-07T06:38:51.907Z,98142.47
2023-05-07T06:40:56.919Z,98147.41
2023-05-07T06:43:00.240Z,98146.41
2023-05-07T06:45:24.944Z,98141.94
2023-05-07T06:47:30.159Z,98135.28
2023-05-07T06:49:33.587Z,98131.44
2023-05-07T06:51:36.646Z,98143.38
2023-05-07T06:53:40.558Z,98148.34
2023-05-07T06:55:47.808Z,98139.34
2023-05-07T06:57:53.112Z,98128.59
2023-05-07T06:59:58.162Z,98146.34
2023-05-07T07:02:01.351Z,98150.16
2023-05-07T07:04:04.864Z,98147.22
2023-05-07T07:06:08.567Z,98137.56
2023-05-07T07:08:11.913Z,98135.16
2023-05-07T07:10:15.737Z,98132.31
2023-05-07T07:12:20.316Z,98137.09
2023-05-07T07:14:24.052Z,98121.69
2023-05-07T07:16:28.939Z,98116.31
2023-05-07T07:18:32.310Z,98116.94
2023-05-07T07:20:35.895Z,98115.66
2023-05-07T07:22:40.055Z,98140.94
2023-05-07T07:24:43.724Z,98136.19
2023-05-07T07:26:49.569Z,98128.06
2023-05-07T07:28:54.553Z,98140.53
2023-05-07T07:30:59.211Z,98131.09
2023-05-07T07:33:04.301Z,98133.66
2023-05-07T07:35:11.376Z,98143.38
2023-05-07T07:37:15.656Z,98143.53
2023-05-07T07:39:19.208Z,98143.34
2023-05-07T07:41:24.388Z,98135.78
2023-05-07T07:43:27.839Z,98136.16
2023-05-07T07:45:32.906Z,98127.16
2023-05-07T07:47:37.445Z,98122.38
2023-05-07T07:49:40.643Z,98116.13
2023-05-07T07:51:45.905Z,98121.72
2023-05-07T07:53:50.278Z,98133.22
2023-05-07T07:55:59.197Z,98138.44
2023-05-07T07:58:05.653Z,98136.53
2023-05-07T08:00:10.527Z,98142.06
2023-05-07T08:02:21.454Z,98146.28
2023-05-07T08:04:26.424Z,98142.44
2023-05-07T08:06:32.030Z,98145.75
2023-05-07T08:08:35.089Z,98141.69
2023-05-07T08:10:40.135Z,98148.66
2023-05-07T08:12:50.706Z,98132.84
2023-05-07T08:14:53.996Z,98133.03
2023-05-07T08:16:57.348Z,98131.06
2023-05-07T08:19:02.097Z,98119.53
2023-05-07T08:21:05.972Z,98122.84
2023-05-07T08:23:09.658Z,98129.28
2023-05-07T08:25:14.914Z,98128.69
2023-05-07T08:27:18.191Z,98127.31
2023-05-07T08:29:21.224Z,98127.88
2023-05-07T08:31:24.576Z,98128.69
2023-05-07T08:33:27.823Z,98128.44
2023-05-07T08:35:32.388Z,98124.13
2023-05-07T08:37:35.601Z,98131.63
2023-05-07T08:39:39.122Z,98135.91
2023-05-07T08:41:48.124Z,98120.31
2023-05-07T08:43:51.990Z,98122.75
2023-05-07T08:45:57.044Z,98116.84
2023-05-07T08:48:05.797Z,98106.19
2023-05-07T08:50:12.928Z,98116.69
2023-05-07T08:52:18.223Z,98128.03
2023-05-07T08:54:22.781Z,98131.50
2023-05-07T08:56:26.115Z,98129.41
2023-05-07T08:58:31.044Z,98132.72
2023-05-07T09:00:34.782Z,98129.63
2023-05-07T09:02:39.181Z,98132.41
2023-05-07T09:04:44.931Z,98139.31
2023-05-07T09:06:49.091Z,98140.03
2023-05-07T09:08:54.521Z,98130.88
2023-05-07T09:10:59.985Z,98127.06
2023-05-07T09:13:03.210Z,98129.63
2023-05-07T09:15:08.270Z,98123.19
2023-05-07T09:17:12.011Z,98120.72
2023-05-07T09:19:15.273Z,98130.38
2023-05-07T09:21:23.822Z,98122.25
2023-05-07T09:23:28.395Z,98124.53
2023-05-07T09:25:33.758Z,98127.63
2023-05-07T09:27:43.746Z,98123.41
2023-05-07T09:29:47.073Z,98128.94
2023-05-07T09:31:52.077Z,98133.84
2023-05-07T09:33:56.975Z,98125.25
2023-05-07T09:36:05.073Z,98124.94
2023-05-07T09:38:10.156Z,98125.97
2023-05-07T09:40:22.912Z,98118.75
2023-05-07T09:42:28.388Z,98111.75
2023-05-07T09:44:36.125Z,98116.66
2023-05-07T09:46:41.575Z,98121.25
2023-05-07T09:48:55.044Z,98118.66
2023-05-07T09:50:59.844Z,98120.84
2023-05-07T09:53:06.929Z,98116.25
2023-05-07T09:55:11.547Z,98112.94
2023-05-07T09:57:15.836Z,98114.63
2023-05-07T09:59:23.985Z,98113.03
2023-05-07T10:01:27.692Z,98105.22
2023-05-07T10:03:33.352Z,98100.13
2023-05-07T10:05:41.375Z,98107.78
2023-05-07T10:07:45.547Z,98107.81
2023-05-07T10:09:49.130Z,98107.34
2023-05-07T10:12:01.684Z,98101.34
2023-05-07T10:14:07.497Z,98100.34
2023-05-07T10:16:12.747Z,98089.28
2023-05-07T10:18:23.574Z,98097.84
2023-05-07T10:20:28.304Z,98095.00
2023-05-07T10:22:35.069Z,98093.19
2023-05-07T10:24:39.279Z,98098.81
2023-05-07T10:26:50.807Z,98092.44
2023-05-07T10:29:00.414Z,98093.34
2023-05-07T10:31:20.874Z,98092.97
2023-05-07T10:33:28.496Z,98083.47
2023-05-07T10:35:36.962Z,98078.22
2023-05-07T10:37:40.594Z,98081.28
2023-05-07T10:39:43.767Z,98075.88
2023-05-07T10:41:47.277Z,98072.94
2023-05-07T10:43:50.391Z,98072.56
2023-05-07T10:46:16.490Z,98071.97
2023-05-07T10:48:29.411Z,98069.50
2023-05-07T10:50:39.383Z,98067.31
2023-05-07T10:52:43.243Z,98062.31
2023-05-07T10:55:26.589Z,98071.38
2023-05-07T10:57:53.095Z,98060.09
2023-05-07T11:00:01.976Z,98063.38
2023-05-07T11:02:12.180Z,98057.41
2023-05-07T11:04:27.674Z,98059.69
2023-05-07T11:07:27.976Z,98054.47
2023-05-07T11:09:56.976Z,98051.63
2023-05-07T11:12:11.741Z,98044.66
2023-05-07T11:14:45.950Z,98052.53
2023-05-07T11:17:11.946Z,98056.22
2023-05-07T11:19:16.243Z,98053.16
2023-05-07T11:21:39.344Z,98061.25
2023-05-07T11:24:00.913Z,98062.44
2023-05-07T11:26:18.132Z,98056.00
2023-05-07T11:28:22.059Z,98043.66
2023-05-07T11:30:35.660Z,98040.97
2023-05-07T11:32:40.108Z,98040.31
2023-05-07T11:34:43.352Z,98039.63
2023-05-07T11:36:47.936Z,98036.28
2023-05-07T11:38:54.283Z,98033.53
2023-05-07T11:40:59.994Z,98031.06
2023-05-07T11:43:12.694Z,98026.31
2023-05-07T11:45:25.582Z,98029.56
2023-05-07T11:47:28.630Z,98026.28
2023-05-07T11:49:32.392Z,98029.34
2023-05-07T11:51:35.629Z,98028.28
2023-05-07T11:53:41.844Z,98016.72
2023-05-07T11:55:44.981Z,98021.22
2023-05-07T11:57:48.132Z,98016.66
2023-05-07T11:59:55.387Z,98021.28
2023-05-07T12:02:00.249Z,98013.22
2023-05-07T12:04:06.300Z,98011.97
2023-05-07T12:06:09.955Z,98020.63
2023-05-07T12:08:16.900Z,98016.47
2023-05-07T12:10:22.461Z,98024.72
2023-05-07T12:12:25.986Z,98021.00
2023-05-07T12:14:29.993Z,98022.63
2023-05-07T12:16:33.213Z,98017.28
2023-05-07T12:18:37.887Z,98025.13
2023-05-07T12:20:41.513Z,98029.06
2023-05-07T12:22:44.908Z,98029.25
2023-05-07T12:24:49.197Z,98024.25
2023-05-07T12:26:53.863Z,98020.94
2023-05-07T12:28:57.168Z,98018.22
2023-05-07T12:31:00.511Z,98020.19
2023-05-07T12:33:03.746Z,98011.72
2023-05-07T12:35:08.919Z,98020.06
2023-05-07T12:37:12.302Z,98019.41
2023-05-07T12:39:15.698Z,98010.16
2023-05-07T12:41:19.354Z,98021.38
2023-05-07T12:43:26.319Z,98022.38
2023-05-07T12:45:29.485Z,98030.75
2023-05-07T12:47:33.406Z,98024.16
2023-05-07T12:49:38.671Z,98029.03
2023-05-07T12:51:42.007Z,98032.91
2023-05-07T12:53:45.554Z,98035.31
2023-05-07T12:55:50.218Z,98035.50
2023-05-07T12:57:54.241Z,98041.22
2023-05-07T13:00:00.168Z,98033.16
2023-05-07T13:02:03.511Z,98040.06
2023-05-07T13:04:07.012Z,98026.69
2023-05-07T13:06:13.288Z,98034.44
2023-05-07T13:08:26.253Z,98031.41
2023-05-07T13:10:29.741Z,98026.47
2023-05-07T13:12:33.025Z,98033.81
2023-05-07T13:14:36.423Z,98026.38
2023-05-07T13:16:40.915Z,98028.22
2023-05-07T13:18:46.547Z,98031.81
2023-05-07T13:20:49.962Z,98028.50
2023-05-07T13:22:53.078Z,98033.84
2023-05-07T13:24:56.245Z,98037.69
2023-05-07T13:26:59.568Z,98034.75
2023-05-07T13:29:02.726Z,98029.34
2023-05-07T13:31:05.853Z,98036.59
2023-05-07T13:33:10.565Z,98036.69
2023-05-07T13:35:13.845Z,98040.47
2023-05-07T13:37:17.111Z,98038.84
2023-05-07T13:39:20.226Z,98045.28
2023-05-07T13:41:23.335Z,98044.50
2023-05-07T13:43:26.820Z,98035.13
2023-05-07T13:45:30.615Z,98036.88
2023-05-07T13:47:33.941Z,98037.31
2023-05-07T13:49:38.591Z,98033.25
2023-05-07T13:51:41.825Z,98041.09
2023-05-07T13:53:44.991Z,98056.13
2023-05-07T13:55:48.425Z,98068.13
2023-05-07T13:57:57.172Z,98071.28
2023-05-07T14:00:00.361Z,98071.31
2023-05-07T14:02:03.436Z,98075.00
2023-05-07T14:04:06.683Z,98092.91
2023-05-07T14:06:11.072Z,98096.41
2023-05-07T14:08:14.970Z,98099.91
2023-05-07T14:10:18.257Z,98098.28
2023-05-07T14:12:21.574Z,98098.44
2023-05-07T14:14:24.688Z,98100.47
2023-05-07T14:16:27.770Z,98102.63
2023-05-07T14:18:30.983Z,98103.94
2023-05-07T14:20:34.019Z,98098.44
2023-05-07T14:22:38.583Z,98096.31
2023-05-07T14:24:41.709Z,98096.31
2023-05-07T14:26:46.214Z,98097.78
2023-05-07T14:28:49.330Z,98087.53
2023-05-07T14:30:52.468Z,98081.91
2023-05-07T14:32:55.869Z,98087.03
2023-05-07T14:34:59.039Z,98083.69
2023-05-07T14:37:02.544Z,98086.84
2023-05-07T14:39:07.075Z,98092.47
2023-05-07T14:41:10.467Z,98103.38
2023-05-07T14:43:13.768Z,98107.53
2023-05-07T14:45:17.051Z,98111.66
2023-05-07T14:47:27.609Z,98120.91
2023-05-07T14:49:32.896Z,98129.31
2023-05-07T14:51:36.010Z,98137.78
2023-05-07T14:53:39.170Z,98142.66
2023-05-07T14:55:43.990Z,98149.28
2023-05-07T14:57:47.184Z,98136.16
2023-05-07T14:59:50.316Z,98141.25
2023-05-07T15:01:53.590Z,98136.59
2023-05-07T15:03:57.196Z,98142.19
2023-05-07T15:06:00.563Z,98140.03
2023-05-07T15:08:03.667Z,98143.25
2023-05-07T15:10:07.989Z,98145.22
2023-05-07T15:12:13.142Z,98142.41
2023-05-07T15:14:16.204Z,98153.53
2023-05-07T15:16:20.439Z,98154.34
2023-05-07T15:18:23.627Z,98144.75
2023-05-07T15:20:26.764Z,98150.88
2023-05-07T15:22:29.943Z,98143.75
2023-05-07T15:24:33.501Z,98144.38
2023-05-07T15:26:36.600Z,98134.56
2023-05-07T15:28:41.368Z,98142.47
2023-05-07T15:30:44.623Z,98138.03
2023-05-07T15:32:48.531Z,98146.50
2023-05-07T15:34:51.540Z,98149.59
2023-05-07T15:36:54.413Z,98144.41
2023-05-07T15:38:57.371Z,98131.81
2023-05-07T15:41:00.614Z,98140.66
2023-05-07T15:43:03.786Z,98139.38
2023-05-07T15:45:10.877Z,98140.41
2023-05-07T15:47:15.196Z,98152.34
2023-05-07T15:49:18.551Z,98150.66
2023-05-07T15:51:22.818Z,98150.88
2023-05-07T15:53:25.960Z,98144.47
2023-05-07T15:55:29.114Z,98155.41
2023-05-07T15:57:32.498Z,98166.19
2023-05-07T15:59:36.348Z,98167.72
2023-05-07T16:01:42.481Z,98165.78
2023-05-07T16:03:46.450Z,98166.44
2023-05-07T16:05:49.811Z,98168.78
2023-05-07T16:07:53.010Z,98167.75
2023-05-07T16:09:56.112Z,98175.38
2023-05-07T16:11:59.236Z,98169.78
2023-05-07T16:14:02.487Z,98173.28
2023-05-07T16:16:06.577Z,98172.13
2023-05-07T16:18:12.175Z,98177.25
2023-05-07T16:20:16.824Z,98182.41
2023-05-07T16:22:20.290Z,98184.72
2023-05-07T16:24:23.354Z,98185.75
2023-05-07T16:26:26.881Z,98191.69
2023-05-07T16:28:30.253Z,98197.81
2023-05-07T16:30:33.491Z,98194.50
2023-05-07T16:32:36.908Z,98205.91
2023-05-07T16:34:41.616Z,98203.56
2023-05-07T16:36:44.755Z,98200.56
2023-05-07T16:38:48.105Z,98200.19
2023-05-07T16:40:51.292Z,98203.16
2023-05-07T16:42:55.701Z,98210.09
2023-05-07T16:44:58.862Z,98209.25
2023-05-07T16:47:02.001Z,98213.72
2023-05-07T16:49:05.073Z,98205.13
2023-05-07T16:51:09.624Z,98205.13
2023-05-07T16:53:13.062Z,98209.56
2023-05-07T16:55:16.333Z,98215.72
2023-05-07T16:57:19.442Z,98207.06
2023-05-07T16:59:23.230Z,98218.66
2023-05-07T17:01:26.398Z,98217.41
2023-05-07T17:03:32.073Z,98213.94
2023-05-07T17:05:35.317Z,98225.34
2023-05-07T17:07:39.813Z,98221.03
2023-05-07T17:09:43.544Z,98226.56
2023-05-07T17:11:46.689Z,98234.13
2023-05-07T17:13:50.412Z,98232.91
2023-05-07T17:15:53.506Z,98229.59
2023-05-07T17:17:56.732Z,98237.84
2023-05-07T17:20:00.113Z,98232.03
2023-05-07T17:22:03.393Z,98231.78
2023-05-07T17:24:09.678Z,98230.13
2023-05-07T17:26:13.816Z,98237.06
2023-05-07T17:28:17.031Z,98228.16
2023-05-07T17:30:20.287Z,98227.50
2023-05-07T17:32:23.406Z,98234.56
2023-05-07T17:34:26.675Z,98241.69
2023-05-07T17:36:29.792Z,98242.66
2023-05-07T17:38:33.163Z,98236.38
2023-05-07T17:40:53.859Z,98235.03
2023-05-07T17:42:59.451Z,98237.97
2023-05-07T17:45:02.803Z,98244.25
2023-05-07T17:47:06.922Z,98248.53
2023-05-07T17:49:10.078Z,98254.09
2023-05-07T17:51:13.255Z,98258.56
2023-05-07T17:53:16.395Z,98260.84
2023-05-07T17:55:19.733Z,98254.72
2023-05-07T17:57:24.265Z,98253.06
2023-05-07T17:59:27.504Z,98252.22
2023-05-07T18:01:30.937Z,98245.44
2023-05-07T18:03:34.982Z,98253.88
2023-05-07T18:05:39.601Z,98260.00
2023-05-07T18:07:42.991Z,98258.34
2023-05-07T18:09:46.213Z,98253.88
2023-05-07T18:11:49.349Z,98253.06
2023-05-07T18:13:53.915Z,98265.88
2023-05-07T18:15:57.308Z,98258.94
2023-05-07T18:18:00.849Z,98255.59
2023-05-07T18:20:04.200Z,98260.88
2023-05-07T18:22:07.479Z,98261.88
2023-05-07T18:24:11.104Z,98274.09
2023-05-07T18:26:14.303Z,98267.97
2023-05-07T18:28:17.388Z,98275.38
2023-05-07T18:30:23.271Z,98287.34
2023-05-07T18:32:26.540Z,98288.94
2023-05-07T18:34:29.824Z,98288.53
2023-05-07T18:36:32.921Z,98283.38
2023-05-07T18:38:36.114Z,98287.81
2023-05-07T18:40:43.803Z,98289.63
2023-05-07T18:42:46.885Z,98287.81
2023-05-07T18:44:51.347Z,98294.91
2023-05-07T18:46:55.826Z,98288.78
2023-05-07T18:48:59.253Z,98293.25
2023-05-07T18:51:02.360Z,98295.06
2023-05-07T18:53:05.576Z,98299.34
2023-05-07T18:55:10.749Z,98301.03
2023-05-07T18:57:13.871Z,98297.84
2023-05-07T18:59:17.377Z,98312.31
2023-05-07T19:01:20.475Z,98313.56
2023-05-07T19:03:25.012Z,98311.22
2023-05-07T19:05:28.124Z,98313.03
2023-05-07T19:07:31.801Z,98324.56
2023-05-07T19:09:34.909Z,98329.00
2023-05-07T19:11:38.052Z,98324.69
2023-05-07T19:13:41.252Z,98334.28
2023-05-07T19:15:44.740Z,98337.22
2023-05-07T19:17:47.978Z,98339.84
2023-05-07T19:19:52.591Z,98344.47
2023-05-07T19:21:55.804Z,98344.47
2023-05-07T19:23:58.924Z,98348.91
2023-05-07T19:26:02.366Z,98349.06
2023-05-07T19:28:05.574Z,98350.03
2023-05-07T19:30:10.128Z,98352.66
2023-05-07T19:32:13.325Z,98357.94
2023-05-07T19:34:16.414Z,98346.69
2023-05-07T19:36:21.492Z,98351.41
2023-05-07T19:38:24.682Z,98357.81
2023-05-07T19:40:27.895Z,98360.03
2023-05-07T19:42:31.206Z,98362.97
2023-05-07T19:44:36.857Z,98359.78
2023-05-07T19:46:44.673Z,98368.66
2023-05-07T19:48:48.114Z,98379.63
2023-05-07T19:50:51.413Z,98387.97
2023-05-07T19:52:56.032Z,98391.75
2023-05-07T19:54:59.276Z,98398.94
2023-05-07T19:57:03.242Z,98397.03
2023-05-07T19:59:06.341Z,98404.06
2023-05-07T20:01:09.533Z,98402.28
2023-05-07T20:03:18.494Z,98402.16
2023-05-07T20:05:22.332Z,98401.44
2023-05-07T20:07:25.596Z,98405.09
2023-05-07T20:09:30.283Z,98403.28
2023-05-07T20:11:33.895Z,98406.03
2023-05-07T20:13:37.183Z,98412.16
2023-05-07T20:15:40.695Z,98414.66
2023-05-07T20:17:44.490Z,98417.28
2023-05-07T20:19:47.776Z,98418.97
2023-05-07T20:21:51.016Z,98421.72
2023-05-07T20:23:54.519Z,98419.91
2023-05-07T20:25:59.521Z,98419.91
2023-05-07T20:28:02.918Z,98419.91
2023-05-07T20:30:07.259Z,98422.56
2023-05-07T20:32:10.454Z,98421.72
2023-05-07T20:34:13.614Z,98426.31
2023-05-07T20:36:16.860Z,98429.25
2023-05-07T20:38:20.470Z,98437.28
2023-05-07T20:40:24.155Z,98439.94
2023-05-07T20:42:29.560Z,98449.75
2023-05-07T20:44:33.964Z,98442.84
2023-05-07T20:46:38.431Z,98443.66
2023-05-07T20:48:41.956Z,98446.44
2023-05-07T20:50:45.376Z,98443.78
2023-05-07T20:52:48.657Z,98444.75
2023-05-07T20:54:51.996Z,98443.38
2023-05-07T20:56:55.238Z,98444.88
2023-05-07T20:58:59.829Z,98443.59
2023-05-07T21:01:04.989Z,98443.19
2023-05-07T21:03:08.479Z,98444.16
2023-05-07T21:05:12.033Z,98445.81
2023-05-07T21:07:15.251Z,98445.13
2023-05-07T21:09:19.301Z,98449.56
2023-05-07T21:11:22.781Z,98451.34
2023-05-07T21:13:26.489Z,98451.34
2023-05-07T21:15:31.446Z,98450.53
2023-05-07T21:17:35.340Z,98448.59
2023-05-07T21:19:40.352Z,98445.00
2023-05-07T21:21:44.232Z,98454.84
2023-05-07T21:23:47.697Z,98462.75
2023-05-07T21:25:51.897Z,98455.66
2023-05-07T21:27:55.296Z,98465.25
2023-05-07T21:30:04.109Z,98460.81
2023-05-07T21:32:10.104Z,98460.81
2023-05-07T21:34:13.230Z,98454.72
2023-05-07T21:36:16.441Z,98455.66
2023-05-07T21:38:19.850Z,98465.25
2023-05-07T21:40:23.009Z,98467.03
2023-05-07T21:42:26.712Z,98461.63
2023-05-07T21:44:30.133Z,98460.66
2023-05-07T21:46:34.107Z,98461.22
2023-05-07T21:48:39.417Z,98465.81
2023-05-07T21:50:42.483Z,98465.81
2023-05-07T21:52:45.702Z,98460.53
2023-05-07T21:54:48.812Z,98469.41
2023-05-07T21:56:52.098Z,98469.28
2023-05-07T21:58:55.284Z,98466.75
2023-05-07T22:00:58.457Z,98459.13
2023-05-07T22:03:02.100Z,98472.31
2023-05-07T22:05:07.391Z,98465.38
2023-05-07T22:07:10.678Z,98473.31
2023-05-07T22:09:14.073Z,98473.44
2023-05-07T22:11:17.234Z,98468.28
2023-05-07T22:13:20.715Z,98471.06
2023-05-07T22:15:23.907Z,98471.06
2023-05-07T22:17:26.956Z,98469.94
2023-05-07T22:19:30.049Z,98471.75
2023-05-07T22:21:34.737Z,98473.56
2023-05-07T22:23:37.790Z,98471.75
2023-05-07T22:25:40.848Z,98477.03
2023-05-07T22:27:43.918Z,98476.22
2023-05-07T22:29:46.975Z,98467.44
2023-05-07T22:31:50.239Z,98467.44
2023-05-07T22:33:53.323Z,98469.25
2023-05-07T22:35:56.354Z,98478.13
2023-05-07T22:38:00.767Z,98480.88
2023-05-07T22:40:04.315Z,98480.19
2023-05-07T22:42:08.394Z,98481.44
2023-05-07T22:44:11.406Z,98476.56
2023-05-07T22:46:14.748Z,98480.19
2023-05-07T22:48:18.493Z,98476.69
2023-05-07T22:50:21.595Z,98484.59
2023-05-07T22:52:24.685Z,98481.28
2023-05-07T22:54:29.175Z,98476.97
2023-05-07T22:56:32.229Z,98477.94
2023-05-07T22:58:35.431Z,98476.41
2023-05-07T23:00:38.948Z,98478.22
2023-05-07T23:02:42.043Z,98480.13
2023-05-07T23:04:45.121Z,98480.13
2023-05-07T23:06:48.191Z,98483.63
2023-05-07T23:08:51.195Z,98481.81
2023-05-07T23:10:55.646Z,98477.50
2023-05-07T23:12:58.795Z,98479.84
2023-05-07T23:15:01.886Z,98481.53
2023-05-07T23:17:05.028Z,98485.13
2023-05-07T23:19:08.120Z,98480.00
2023-05-07T23:21:11.231Z,98477.91
2023-05-07T23:23:14.276Z,98487.88
2023-05-07T23:25:18.257Z,98481.22
2023-05-07T23:27:22.656Z,98480.38
2023-05-07T23:29:25.718Z,98477.03
2023-05-07T23:31:28.894Z,98481.50
2023-05-07T23:33:31.988Z,98480.38
2023-05-07T23:35:35.191Z,98476.09
2023-05-07T23:37:39.107Z,98472.47
2023-05-07T23:39:42.125Z,98468.88
2023-05-07T23:41:45.299Z,98471.50
2023-05-07T23:43:49.683Z,98470.56
2023-05-07T23:45:52.913Z,98466.09
2023-05-07T23:47:56.066Z,98466.25
2023-05-07T23:49:59.100Z,98465.28
2023-05-07T23:52:02.178Z,98460.84
2023-05-07T23:54:05.317Z,98459.88
2023-05-07T23:56:08.373Z,98457.09
2023-05-07T23:58:11.382Z,98451.69
